AirNav   Advertisement
 
 671 users online  

08CA PG&E Co. Placerville Service Center Heliport
Diamond Springs, California, USA

GOING TO DIAMOND SPRINGS?


FAA INFORMATION EFFECTIVE 20 JULY 2017

Location

FAA Identifier: 08CA
Lat/Long: 38-41-42.8000N / 120-49-33.8000W
38-41.713333N / 120-49.563333W
38.6952222 / -120.8260556
(estimated)
Elevation: 1810 ft. / 552 m (estimated)
Variation: 16E (1985)
From city: 1 mile W of DIAMOND SPRINGS, CA
Time zone: UTC -7 (UTC -8 during Standard Time)
Zip code: 95619

Heliport Operations

Heliport use: Private use. Permission required prior to landing
Activation date: 05/1980
Control tower: no
ARTCC: OAKLAND CENTER
FSS: OAKLAND FLIGHT SERVICE STATION
Attendance: UNATNDD
Wind indicator: yes
Segmented circle: no

Heliport Communications

WX AWOS-3 at PVF (4 nm NE): 128.125 (530-622-5698)
WX AWOS-3 at JAQ (19 nm S): 121.125 (209-257-1292)
WX AWOS-3 at AUN (20 nm NW): 119.375 (530-888-8934)

Nearby radio navigation aids

VOR radial/distance  VOR name  Freq  Var
HNWr227/4.0HANGTOWN VOR/DME115.5017E
MCCr069/27.1MC CLELLAN VOR/DME109.2017E
SACr049/37.2SACRAMENTO VORTAC115.2017E
LINr356/38.2LINDEN VOR/DME114.8017E
SWRr206/39.0SQUAW VALLEY VOR/DME113.2016E

Heliport Services

Runway Information

Helipad H1

Dimensions: 60 x 60 ft. / 18 x 18 m
Surface: asphalt
Latitude: 38-41.713333N
Longitude: 120-49.563333W
Elevation: 1810.0 ft.
Traffic pattern: leftleft

Heliport Ownership and Management from official FAA records

Ownership: Privately-owned
Owner: PACIFIC GAS & ELEC CO.
343 SACRAMENTO STREET
AUBURN, CA 95603
Phone 916-889-3195
Manager: GINO RINALDI
4636 MISSOURI FLAT ROAD
PLACERVILLE, CA 95667
Phone (530) 621-7269
CELL: 530-919-8262

Heliport Operational Statistics

Aircraft based on the field: 1
Helicopters: 1
    

Instrument Procedures

There are no published instrument procedures at 08CA.

Some nearby airports with instrument procedures:

KPVF - Placerville Airport (4 nm NE)
KJAQ - Westover Field / Amador County Airport (19 nm S)
KAUN - Auburn Municipal Airport (20 nm NW)
KMHR - Sacramento Mather Airport (24 nm W)
KMCC - Mc Clellan Airfield (27 nm W)
 
Loc | Ops | Rwys | IFR | FBO | Links
Com | Nav | Svcs | Stats | Notes


 
Area around 08CA (PG&E Co. Placerville Service Center Heliport)
 
Road maps at: MapQuest Bing Google
 
Aerial photo
No photo
 
Sectional chart

 
Airport distance calculator
Flying to PG&E Co. Placerville Service Center Heliport? Find the distance to fly.

From to 08CA

Sunrise and sunset
Times for 21-Jul-2017
 Local
(UTC-7)
 Zulu
(UTC)
Morning civil twilight05:2612:26
Sunrise05:5612:56
Sunset20:2303:23
Evening civil twilight20:5303:53

Current date and time
Zulu (UTC)  22-Jul-2017 04:19:57
Local (UTC-7)  21-Jul-2017 21:19:57
 
METAR
KPVF 
4nm NE 
220335Z AUTO 32003KT 10SM CLR 27/07 A3003 RMK AO1
KJAQ 
19nm S 
220350Z AUTO 01006KT 10SM CLR 27/12 A2995 RMK AO1 T02690120
KAUN 
20nm NW 
220355Z AUTO 00000KT 10SM CLR 23/08 A2994 RMK AO1
TAF
KMHR 
24nm SW 
211720Z 2118/2218 22008KT P6SM SKC FM220500 15007KT P6SM SKC
NOTAMs
Click for the latest NOTAMs
NOTAMs are issued by the DoD/FAA and will open in a separate window not controlled by AirNav.

 

 
 

Would you like to see your business listed on this page?

 If your business provides an interesting product or service to pilots, flight crews, aircraft, or users of the PG&E Co. Placerville Service Center Heliport, you should consider listing it here.  To start the listing process, click on the button below
 
Add a business
 

Other Pages about PG&E Co. Placerville Service Center Heliport

Update a link
 
Copyright © AirNav, LLC. All rights reserved. Privacy Policy  Contact